Time,TemperatureF,DewpointF,PressureIn,WindDirection,WindDirectionDegrees,WindSpeedMPH,WindSpeedGustMPH,Humidity,HourlyPrecipIn,Conditions,Clouds,dailyrainin,SoftwareType,DateUTC
2013-01-05 00:16:00,30.0,20.0,29.96,SE,135,2.2,-999.0,66,-99.99,,,0.00,Acu-Link.com,2013-01-05 05:16:00,
2013-01-05 00:32:00,29.8,19.9,29.96,NE,45,1.1,-999.0,66,-99.99,,,0.00,Acu-Link.com,2013-01-05 05:32:00,
2013-01-05 00:47:00,29.5,19.9,29.97,NNE,22,4.7,-999.0,67,-99.99,,,0.00,Acu-Link.com,2013-01-05 05:47:00,
2013-01-05 01:02:00,29.7,19.8,29.96,East,90,4.2,-999.0,66,-99.99,,,0.00,Acu-Link.com,2013-01-05 06:02:00,
2013-01-05 01:18:00,29.8,19.5,29.97,NW,315,4.7,-999.0,65,-99.99,,,0.00,Acu-Link.com,2013-01-05 06:18:00,
2013-01-05 01:33:00,30.0,19.3,29.95,ENE,67,5.3,-999.0,64,-99.99,,,0.00,Acu-Link.com,2013-01-05 06:33:00,
2013-01-05 01:48:00,29.8,18.8,29.95,SSW,202,4.2,-999.0,63,-99.99,,,0.00,Acu-Link.com,2013-01-05 06:48:00,
2013-01-05 02:03:00,30.2,19.1,29.96,NNE,22,7.8,-999.0,63,-99.99,,,0.00,Acu-Link.com,2013-01-05 07:03:00,
2013-01-05 02:19:00,30.0,19.3,29.97,West,270,3.7,-999.0,64,-99.99,,,0.00,Acu-Link.com,2013-01-05 07:19:00,
2013-01-05 02:34:00,30.0,19.3,29.97,NW,315,3.7,-999.0,64,-99.99,,,0.00,Acu-Link.com,2013-01-05 07:34:00,
2013-01-05 02:49:00,29.7,19.4,29.97,NW,315,3.2,-999.0,65,-99.99,,,0.00,Acu-Link.com,2013-01-05 07:49:00,
2013-01-05 03:05:00,29.7,19.4,29.97,ENE,67,4.2,-999.0,65,-99.99,,,0.00,Acu-Link.com,2013-01-05 08:05:00,
2013-01-05 03:20:00,29.7,19.8,29.97,NNW,337,3.2,-999.0,66,-99.99,,,0.00,Acu-Link.com,2013-01-05 08:20:00,
2013-01-05 03:35:00,29.7,19.4,29.98,North,0,3.2,-999.0,65,-99.99,,,0.00,Acu-Link.com,2013-01-05 08:35:00,
2013-01-05 03:51:00,29.7,19.0,29.97,NNW,337,4.7,-999.0,64,-99.99,,,0.00,Acu-Link.com,2013-01-05 08:51:00,
2013-01-05 04:08:00,29.8,18.8,29.96,NNE,22,4.7,-999.0,63,-99.99,,,0.00,Acu-Link.com,2013-01-05 09:08:00,
2013-01-05 04:23:00,29.8,18.4,29.95,NE,45,3.7,-999.0,62,-99.99,,,0.00,Acu-Link.com,2013-01-05 09:23:00,
2013-01-05 04:38:00,30.0,17.8,29.96,NE,45,3.7,-999.0,60,-99.99,,,0.00,Acu-Link.com,2013-01-05 09:38:00,
2013-01-05 04:53:00,30.4,17.8,29.95,NNE,22,4.2,-999.0,59,-99.99,,,0.00,Acu-Link.com,2013-01-05 09:53:00,
2013-01-05 05:09:00,30.6,17.6,29.95,North,0,5.8,-999.0,58,-99.99,,,0.00,Acu-Link.com,2013-01-05 10:09:00,
2013-01-05 05:24:00,30.7,17.3,29.95,NNE,22,1.7,-999.0,57,-99.99,,,0.00,Acu-Link.com,2013-01-05 10:24:00,
2013-01-05 05:39:00,30.6,18.0,29.96,NE,45,5.3,-999.0,59,-99.99,,,0.00,Acu-Link.com,2013-01-05 10:39:00,
2013-01-05 05:54:00,30.6,17.6,29.95,WNW,292,3.2,-999.0,58,-99.99,,,0.00,Acu-Link.com,2013-01-05 10:54:00,
2013-01-05 06:10:00,30.4,17.8,29.95,North,0,3.7,-999.0,59,-99.99,,,0.00,Acu-Link.com,2013-01-05 11:10:00,
2013-01-05 06:25:00,30.2,17.2,29.97,SSE,157,3.2,-999.0,58,-99.99,,,0.00,Acu-Link.com,2013-01-05 11:25:00,
2013-01-05 06:40:00,29.8,17.2,29.96,ESE,112,1.7,-999.0,59,-99.99,,,0.00,Acu-Link.com,2013-01-05 11:40:00,
2013-01-05 06:55:00,30.2,17.2,29.97,NW,315,1.7,-999.0,58,-99.99,,,0.00,Acu-Link.com,2013-01-05 11:55:00,
2013-01-05 07:11:00,30.4,17.0,29.98,WNW,292,3.7,-999.0,57,-99.99,,,0.00,Acu-Link.com,2013-01-05 12:11:00,
2013-01-05 07:26:00,30.7,17.3,29.98,West,270,1.7,-999.0,57,-99.99,,,0.00,Acu-Link.com,2013-01-05 12:26:00,
2013-01-05 07:41:00,30.2,16.8,29.99,NE,45,0.0,-999.0,57,-99.99,,,0.00,Acu-Link.com,2013-01-05 12:41:00,
2013-01-05 07:57:00,29.8,17.2,30.00,ENE,67,0.0,-999.0,59,-99.99,,,0.00,Acu-Link.com,2013-01-05 12:57:00,
2013-01-05 08:12:00,30.0,17.0,29.99,NE,45,1.1,-999.0,58,-99.99,,,0.00,Acu-Link.com,2013-01-05 13:12:00,
2013-01-05 08:27:00,30.6,17.6,30.00,SSW,202,1.1,-999.0,58,-99.99,,,0.00,Acu-Link.com,2013-01-05 13:27:00,
2013-01-05 08:43:00,31.5,17.2,30.01,West,270,0.0,-999.0,55,-99.99,,,0.00,Acu-Link.com,2013-01-05 13:43:00,
2013-01-05 08:58:00,32.5,17.7,30.00,North,0,0.0,-999.0,54,-99.99,,,0.00,Acu-Link.com,2013-01-05 13:58:00,
2013-01-05 09:13:00,33.3,18.0,30.00,WSW,247,0.0,-999.0,53,-99.99,,,0.00,Acu-Link.com,2013-01-05 14:13:00,
2013-01-05 09:28:00,33.8,18.1,30.00,West,270,0.0,-999.0,52,-99.99,,,0.00,Acu-Link.com,2013-01-05 14:28:00,
2013-01-05 09:44:00,34.5,18.3,30.01,West,270,0.0,-999.0,51,-99.99,,,0.00,Acu-Link.com,2013-01-05 14:44:00,
2013-01-05 09:59:00,35.2,18.4,30.01,North,0,1.1,-999.0,50,-99.99,,,0.00,Acu-Link.com,2013-01-05 14:59:00,
2013-01-05 10:14:00,36.1,17.8,30.00,West,270,1.7,-999.0,47,-99.99,,,0.00,Acu-Link.com,2013-01-05 15:14:00,
2013-01-05 10:30:00,37.6,18.7,29.99,WNW,292,0.0,-999.0,46,-99.99,,,0.00,Acu-Link.com,2013-01-05 15:30:00,
2013-01-05 10:45:00,39.2,19.7,30.00,West,270,0.0,-999.0,45,-99.99,,,0.00,Acu-Link.com,2013-01-05 15:45:00,
2013-01-05 11:00:00,40.8,20.1,30.00,WNW,292,0.0,-999.0,43,-99.99,,,0.00,Acu-Link.com,2013-01-05 16:00:00,
2013-01-05 11:16:00,42.3,17.3,30.00,SSW,202,3.7,-999.0,36,-99.99,,,0.00,Acu-Link.com,2013-01-05 16:16:00,
2013-01-05 11:31:00,42.1,17.1,29.98,SSW,202,3.7,-999.0,36,-99.99,,,0.00,Acu-Link.com,2013-01-05 16:31:00,
2013-01-05 11:46:00,42.3,16.6,29.98,SSE,157,4.2,-999.0,35,-99.99,,,0.00,Acu-Link.com,2013-01-05 16:46:00,
2013-01-05 12:01:00,43.0,17.2,29.96,South,180,4.2,-999.0,35,-99.99,,,0.00,Acu-Link.com,2013-01-05 17:01:00,
2013-01-05 12:16:00,41.5,17.8,29.95,SW,225,4.2,-999.0,38,-99.99,,,0.00,Acu-Link.com,2013-01-05 17:16:00,
2013-01-05 12:32:00,42.1,19.5,29.94,SW,225,4.2,-999.0,40,-99.99,,,0.00,Acu-Link.com,2013-01-05 17:32:00,
2013-01-05 12:47:00,42.3,19.7,29.95,SSE,157,3.7,-999.0,40,-99.99,,,0.00,Acu-Link.com,2013-01-05 17:47:00,
2013-01-05 13:02:00,42.8,20.8,29.95,NNW,337,3.7,-999.0,41,-99.99,,,0.00,Acu-Link.com,2013-01-05 18:02:00,
2013-01-05 13:18:00,42.3,22.0,29.94,South,180,4.7,-999.0,44,-99.99,,,0.00,Acu-Link.com,2013-01-05 18:18:00,
2013-01-05 13:33:00,42.4,22.6,29.93,SSW,202,3.2,-999.0,45,-99.99,,,0.00,Acu-Link.com,2013-01-05 18:33:00,
2013-01-05 13:48:00,43.5,24.1,29.92,South,180,3.2,-999.0,46,-99.99,,,0.00,Acu-Link.com,2013-01-05 18:48:00,
2013-01-05 14:04:00,43.3,22.9,29.91,WSW,247,3.7,-999.0,44,-99.99,,,0.00,Acu-Link.com,2013-01-05 19:04:00,
2013-01-05 14:19:00,42.4,21.5,29.91,SW,225,1.7,-999.0,43,-99.99,,,0.00,Acu-Link.com,2013-01-05 19:19:00,
2013-01-05 14:34:00,42.3,20.9,29.91,South,180,3.7,-999.0,42,-99.99,,,0.00,Acu-Link.com,2013-01-05 19:34:00,
2013-01-05 14:49:00,42.8,21.3,29.92,SE,135,2.7,-999.0,42,-99.99,,,0.00,Acu-Link.com,2013-01-05 19:49:00,
2013-01-05 15:05:00,42.6,21.7,29.91,SSE,157,2.7,-999.0,43,-99.99,,,0.00,Acu-Link.com,2013-01-05 20:05:00,
2013-01-05 15:20:00,42.4,22.1,29.91,South,180,2.2,-999.0,44,-99.99,,,0.00,Acu-Link.com,2013-01-05 20:20:00,
2013-01-05 15:35:00,42.3,20.9,29.91,ESE,112,3.7,-999.0,42,-99.99,,,0.00,Acu-Link.com,2013-01-05 20:35:00,
2013-01-05 15:51:00,42.1,21.2,29.91,South,180,2.2,-999.0,43,-99.99,,,0.00,Acu-Link.com,2013-01-05 20:51:00,
2013-01-05 16:06:00,42.1,21.8,29.90,SSE,157,2.7,-999.0,44,-99.99,,,0.00,Acu-Link.com,2013-01-05 21:06:00,
2013-01-05 16:21:00,41.4,21.1,29.91,SW,225,1.7,-999.0,44,-99.99,,,0.00,Acu-Link.com,2013-01-05 21:21:00,
2013-01-05 16:37:00,41.0,20.8,29.91,SSW,202,3.2,-999.0,44,-99.99,,,0.00,Acu-Link.com,2013-01-05 21:37:00,
2013-01-05 16:52:00,40.6,21.5,29.92,SSW,202,2.2,-999.0,46,-99.99,,,0.00,Acu-Link.com,2013-01-05 21:52:00,
2013-01-05 17:07:00,40.3,22.2,29.91,SSW,202,1.7,-999.0,48,-99.99,,,0.00,Acu-Link.com,2013-01-05 22:07:00,
2013-01-05 17:22:00,40.1,22.0,29.91,SSE,157,3.2,-999.0,48,-99.99,,,0.00,Acu-Link.com,2013-01-05 22:22:00,
2013-01-05 17:38:00,39.7,21.6,29.90,SSW,202,1.7,-999.0,48,-99.99,,,0.00,Acu-Link.com,2013-01-05 22:38:00,
2013-01-05 17:53:00,39.6,22.5,29.90,SW,225,1.7,-999.0,50,-99.99,,,0.00,Acu-Link.com,2013-01-05 22:53:00,
2013-01-05 18:08:00,39.6,22.5,29.91,South,180,3.2,-999.0,50,-99.99,,,0.00,Acu-Link.com,2013-01-05 23:08:00,
2013-01-05 18:24:00,39.4,22.3,29.91,SSW,202,3.7,-999.0,50,-99.99,,,0.00,Acu-Link.com,2013-01-05 23:24:00,
2013-01-05 18:39:00,39.2,22.6,29.91,South,180,3.7,-999.0,51,-99.99,,,0.00,Acu-Link.com,2013-01-05 23:39:00,
2013-01-05 18:54:00,39.0,22.9,29.91,SW,225,3.7,-999.0,52,-99.99,,,0.00,Acu-Link.com,2013-01-05 23:54:00,
2013-01-05 19:09:00,39.0,22.9,29.91,SSW,202,4.7,-999.0,52,-99.99,,,0.00,Acu-Link.com,2013-01-06 00:09:00,
2013-01-05 19:25:00,38.7,23.1,29.90,SSW,202,3.2,-999.0,53,-99.99,,,0.00,Acu-Link.com,2013-01-06 00:25:00,
2013-01-05 19:40:00,38.7,23.5,29.93,SW,225,3.2,-999.0,54,-99.99,,,0.00,Acu-Link.com,2013-01-06 00:40:00,
2013-01-05 19:55:00,38.5,23.8,29.92,South,180,2.2,-999.0,55,-99.99,,,0.00,Acu-Link.com,2013-01-06 00:55:00,
2013-01-05 20:10:00,38.5,23.8,29.91,South,180,3.2,-999.0,55,-99.99,,,0.00,Acu-Link.com,2013-01-06 01:10:00,
2013-01-05 20:26:00,38.3,24.4,29.92,ESE,112,4.2,-999.0,57,-99.99,,,0.00,Acu-Link.com,2013-01-06 01:26:00,
2013-01-05 20:41:00,38.3,24.0,29.92,SSE,157,6.3,-999.0,56,-99.99,,,0.00,Acu-Link.com,2013-01-06 01:41:00,
2013-01-05 20:56:00,38.3,24.0,29.92,SSW,202,5.8,-999.0,56,-99.99,,,0.00,Acu-Link.com,2013-01-06 01:56:00,
2013-01-05 21:11:00,38.5,24.2,29.92,SSW,202,7.8,-999.0,56,-99.99,,,0.00,Acu-Link.com,2013-01-06 02:11:00,
2013-01-05 21:26:00,38.7,24.4,29.92,SSW,202,9.4,-999.0,56,-99.99,,,0.00,Acu-Link.com,2013-01-06 02:26:00,
2013-01-05 21:42:00,38.7,24.4,29.91,SSW,202,4.2,-999.0,56,-99.99,,,0.00,Acu-Link.com,2013-01-06 02:42:00,
2013-01-05 21:57:00,38.1,25.1,29.90,South,180,5.8,-999.0,59,-99.99,,,0.00,Acu-Link.com,2013-01-06 02:57:00,
2013-01-05 22:12:00,38.1,24.6,29.90,SSW,202,5.8,-999.0,58,-99.99,,,0.00,Acu-Link.com,2013-01-06 03:12:00,
2013-01-05 22:28:00,38.3,25.2,29.88,South,180,5.8,-999.0,59,-99.99,,,0.00,Acu-Link.com,2013-01-06 03:28:00,
2013-01-05 22:43:00,38.1,25.5,29.88,SSW,202,3.7,-999.0,60,-99.99,,,0.00,Acu-Link.com,2013-01-06 03:43:00,
2013-01-05 22:58:00,37.9,25.7,29.88,SE,135,3.7,-999.0,61,-99.99,,,0.00,Acu-Link.com,2013-01-06 03:58:00,
2013-01-05 23:13:00,37.6,26.9,29.87,SSW,202,2.2,-999.0,65,-99.99,,,0.00,Acu-Link.com,2013-01-06 04:13:00,
2013-01-05 23:29:00,37.4,26.7,29.87,SSE,157,1.1,-999.0,65,-99.99,,,0.00,Acu-Link.com,2013-01-06 04:29:00,
2013-01-05 23:44:00,37.0,28.1,29.87,WSW,247,0.0,-999.0,70,-99.99,,,0.00,Acu-Link.com,2013-01-06 04:44:00,
2013-01-05 23:59:00,36.7,28.9,29.86,SW,225,1.7,-999.0,73,-99.99,,,0.00,Acu-Link.com,2013-01-06 04:59:00,